sensor_id;sensor_type;location;lat;lon;timestamp;pressure;altitude;pressure_sealevel;temperature;humidity
22550;BME280;11441;57.164;-2.120;2023-07-31T00:01:36;99581.56;;;16.25;100.00
22550;BME280;11441;57.164;-2.120;2023-07-31T00:04:22;99588.34;;;16.20;100.00
22550;BME280;11441;57.164;-2.120;2023-07-31T00:06:48;99586.78;;;16.19;100.00
22550;BME280;11441;57.164;-2.120;2023-07-31T00:09:15;99582.09;;;16.16;100.00
22550;BME280;11441;57.164;-2.120;2023-07-31T00:11:42;99587.63;;;16.16;100.00
22550;BME280;11441;57.164;-2.120;2023-07-31T00:14:09;99582.03;;;16.20;100.00
22550;BME280;11441;57.164;-2.120;2023-07-31T00:16:36;99579.72;;;16.15;100.00
22550;BME280;11441;57.164;-2.120;2023-07-31T00:19:21;99580.88;;;16.17;100.00
22550;BME280;11441;57.164;-2.120;2023-07-31T00:21:48;99569.44;;;16.12;100.00
22550;BME280;11441;57.164;-2.120;2023-07-31T00:24:15;99576.19;;;16.11;100.00
22550;BME280;11441;57.164;-2.120;2023-07-31T00:26:42;99567.84;;;15.87;100.00
22550;BME280;11441;57.164;-2.120;2023-07-31T00:29:27;99567.72;;;15.94;100.00
22550;BME280;11441;57.164;-2.120;2023-07-31T00:31:56;99558.50;;;16.01;100.00
22550;BME280;11441;57.164;-2.120;2023-07-31T00:34:23;99560.53;;;15.97;100.00
22550;BME280;11441;57.164;-2.120;2023-07-31T00:36:50;99568.81;;;16.00;100.00
22550;BME280;11441;57.164;-2.120;2023-07-31T00:39:16;99566.09;;;15.97;100.00
22550;BME280;11441;57.164;-2.120;2023-07-31T00:41:44;99558.63;;;15.94;100.00
22550;BME280;11441;57.164;-2.120;2023-07-31T00:44:10;99556.63;;;15.94;100.00
22550;BME280;11441;57.164;-2.120;2023-07-31T00:46:37;99563.13;;;15.84;100.00
22550;BME280;11441;57.164;-2.120;2023-07-31T00:49:05;99561.28;;;15.70;100.00
22550;BME280;11441;57.164;-2.120;2023-07-31T00:51:32;99551.34;;;15.73;100.00
22550;BME280;11441;57.164;-2.120;2023-07-31T00:54:00;99549.34;;;15.73;100.00
22550;BME280;11441;57.164;-2.120;2023-07-31T00:56:27;99542.59;;;15.78;100.00
22550;BME280;11441;57.164;-2.120;2023-07-31T00:58:55;99552.13;;;15.73;100.00
22550;BME280;11441;57.164;-2.120;2023-07-31T01:01:22;99550.56;;;15.72;100.00
22550;BME280;11441;57.164;-2.120;2023-07-31T01:03:50;99550.53;;;15.76;100.00
22550;BME280;11441;57.164;-2.120;2023-07-31T01:11:52;99555.69;;;15.74;100.00
22550;BME280;11441;57.164;-2.120;2023-07-31T01:14:20;99559.59;;;15.49;100.00
22550;BME280;11441;57.164;-2.120;2023-07-31T01:16:46;99551.09;;;15.33;100.00
22550;BME280;11441;57.164;-2.120;2023-07-31T01:19:32;99546.78;;;15.28;100.00
22550;BME280;11441;57.164;-2.120;2023-07-31T01:25:53;99565.00;;;15.25;100.00
22550;BME280;11441;57.164;-2.120;2023-07-31T01:28:27;99561.41;;;15.28;100.00
22550;BME280;11441;57.164;-2.120;2023-07-31T01:30:58;99550.50;;;15.14;100.00
22550;BME280;11441;57.164;-2.120;2023-07-31T01:33:27;99541.44;;;15.10;100.00
22550;BME280;11441;57.164;-2.120;2023-07-31T01:35:55;99544.47;;;15.23;100.00
22550;BME280;11441;57.164;-2.120;2023-07-31T01:38:23;99542.56;;;15.16;100.00
22550;BME280;11441;57.164;-2.120;2023-07-31T01:40:53;99547.19;;;14.92;100.00
22550;BME280;11441;57.164;-2.120;2023-07-31T01:43:20;99544.78;;;14.94;100.00
22550;BME280;11441;57.164;-2.120;2023-07-31T01:46:05;99528.13;;;14.94;100.00
22550;BME280;11441;57.164;-2.120;2023-07-31T01:48:32;99530.66;;;14.81;100.00
22550;BME280;11441;57.164;-2.120;2023-07-31T01:51:03;99518.56;;;14.64;100.00
22550;BME280;11441;57.164;-2.120;2023-07-31T01:53:31;99526.63;;;14.89;100.00
22550;BME280;11441;57.164;-2.120;2023-07-31T01:55:58;99516.47;;;14.76;100.00
22550;BME280;11441;57.164;-2.120;2023-07-31T01:58:25;99506.09;;;14.83;100.00
22550;BME280;11441;57.164;-2.120;2023-07-31T02:00:52;99512.72;;;14.93;100.00
22550;BME280;11441;57.164;-2.120;2023-07-31T02:03:19;99513.59;;;14.86;100.00
22550;BME280;11441;57.164;-2.120;2023-07-31T02:05:47;99518.38;;;14.82;100.00
22550;BME280;11441;57.164;-2.120;2023-07-31T02:08:15;99513.25;;;14.81;100.00
22550;BME280;11441;57.164;-2.120;2023-07-31T02:10:42;99515.72;;;14.71;100.00
22550;BME280;11441;57.164;-2.120;2023-07-31T02:13:09;99512.59;;;14.66;100.00
22550;BME280;11441;57.164;-2.120;2023-07-31T02:15:36;99498.91;;;14.48;100.00
22550;BME280;11441;57.164;-2.120;2023-07-31T02:18:03;99499.28;;;14.50;100.00
22550;BME280;11441;57.164;-2.120;2023-07-31T02:20:33;99484.19;;;14.58;100.00
22550;BME280;11441;57.164;-2.120;2023-07-31T02:23:01;99494.44;;;14.58;100.00
22550;BME280;11441;57.164;-2.120;2023-07-31T02:25:28;99489.78;;;14.51;100.00
22550;BME280;11441;57.164;-2.120;2023-07-31T02:27:55;99491.28;;;14.59;100.00
22550;BME280;11441;57.164;-2.120;2023-07-31T02:30:44;99484.97;;;14.59;100.00
22550;BME280;11441;57.164;-2.120;2023-07-31T02:33:12;99485.13;;;14.41;100.00
22550;BME280;11441;57.164;-2.120;2023-07-31T02:35:38;99479.22;;;14.39;100.00
22550;BME280;11441;57.164;-2.120;2023-07-31T02:38:05;99485.16;;;14.37;100.00
22550;BME280;11441;57.164;-2.120;2023-07-31T02:40:32;99477.97;;;14.43;100.00
22550;BME280;11441;57.164;-2.120;2023-07-31T02:42:59;99484.63;;;14.53;100.00
22550;BME280;11441;57.164;-2.120;2023-07-31T02:45:26;99473.28;;;14.37;100.00
22550;BME280;11441;57.164;-2.120;2023-07-31T02:47:53;99475.56;;;14.45;100.00
22550;BME280;11441;57.164;-2.120;2023-07-31T02:50:20;99480.38;;;14.41;100.00
22550;BME280;11441;57.164;-2.120;2023-07-31T02:52:47;99468.25;;;14.24;100.00
22550;BME280;11441;57.164;-2.120;2023-07-31T02:55:14;99480.13;;;14.25;100.00
22550;BME280;11441;57.164;-2.120;2023-07-31T02:57:40;99476.13;;;14.29;100.00
22550;BME280;11441;57.164;-2.120;2023-07-31T03:00:07;99468.16;;;14.39;100.00
22550;BME280;11441;57.164;-2.120;2023-07-31T03:02:35;99461.63;;;14.14;100.00
22550;BME280;11441;57.164;-2.120;2023-07-31T03:05:02;99472.69;;;14.18;100.00
22550;BME280;11441;57.164;-2.120;2023-07-31T03:07:29;99466.31;;;14.21;100.00
22550;BME280;11441;57.164;-2.120;2023-07-31T03:09:56;99465.13;;;14.22;100.00
22550;BME280;11441;57.164;-2.120;2023-07-31T03:12:23;99461.97;;;14.20;100.00
22550;BME280;11441;57.164;-2.120;2023-07-31T03:14:50;99459.56;;;14.22;100.00
22550;BME280;11441;57.164;-2.120;2023-07-31T03:17:17;99463.97;;;14.20;100.00
22550;BME280;11441;57.164;-2.120;2023-07-31T03:19:44;99460.78;;;14.21;100.00
22550;BME280;11441;57.164;-2.120;2023-07-31T03:22:11;99460.09;;;14.10;100.00
22550;BME280;11441;57.164;-2.120;2023-07-31T03:24:37;99459.31;;;14.09;100.00
22550;BME280;11441;57.164;-2.120;2023-07-31T03:27:05;99475.03;;;14.20;100.00
22550;BME280;11441;57.164;-2.120;2023-07-31T03:29:32;99468.91;;;13.98;100.00
22550;BME280;11441;57.164;-2.120;2023-07-31T03:32:00;99475.22;;;13.98;100.00
22550;BME280;11441;57.164;-2.120;2023-07-31T03:34:27;99469.25;;;14.00;100.00
22550;BME280;11441;57.164;-2.120;2023-07-31T03:36:54;99460.25;;;13.92;100.00
22550;BME280;11441;57.164;-2.120;2023-07-31T03:39:21;99459.09;;;13.86;100.00
22550;BME280;11441;57.164;-2.120;2023-07-31T03:41:49;99459.13;;;13.82;100.00
22550;BME280;11441;57.164;-2.120;2023-07-31T03:44:16;99458.97;;;14.00;100.00
22550;BME280;11441;57.164;-2.120;2023-07-31T03:46:44;99448.84;;;13.83;100.00
22550;BME280;11441;57.164;-2.120;2023-07-31T03:49:11;99458.38;;;13.78;100.00
22550;BME280;11441;57.164;-2.120;2023-07-31T03:51:38;99458.28;;;13.89;100.00
22550;BME280;11441;57.164;-2.120;2023-07-31T03:54:05;99461.47;;;13.87;100.00
22550;BME280;11441;57.164;-2.120;2023-07-31T03:56:51;99470.22;;;13.79;100.00
22550;BME280;11441;57.164;-2.120;2023-07-31T03:59:18;99459.16;;;13.79;100.00
22550;BME280;11441;57.164;-2.120;2023-07-31T04:01:45;99454.34;;;13.86;100.00
22550;BME280;11441;57.164;-2.120;2023-07-31T04:04:12;99465.41;;;13.86;100.00
22550;BME280;11441;57.164;-2.120;2023-07-31T04:06:39;99465.41;;;13.86;100.00
22550;BME280;11441;57.164;-2.120;2023-07-31T04:09:06;99464.50;;;14.00;100.00
22550;BME280;11441;57.164;-2.120;2023-07-31T04:11:50;99466.50;;;14.00;100.00
22550;BME280;11441;57.164;-2.120;2023-07-31T04:14:17;99465.28;;;14.04;100.00
22550;BME280;11441;57.164;-2.120;2023-07-31T04:16:44;99465.25;;;14.08;100.00
22550;BME280;11441;57.164;-2.120;2023-07-31T04:19:11;99460.94;;;14.03;100.00
22550;BME280;11441;57.164;-2.120;2023-07-31T04:21:38;99461.72;;;14.07;100.00
22550;BME280;11441;57.164;-2.120;2023-07-31T04:24:05;99464.78;;;14.17;100.00
22550;BME280;11441;57.164;-2.120;2023-07-31T04:26:32;99461.28;;;14.09;100.00
22550;BME280;11441;57.164;-2.120;2023-07-31T04:28:58;99465.69;;;14.03;100.00
22550;BME280;11441;57.164;-2.120;2023-07-31T04:31:25;99453.91;;;13.91;100.00
22550;BME280;11441;57.164;-2.120;2023-07-31T04:33:52;99468.56;;;13.92;100.00
22550;BME280;11441;57.164;-2.120;2023-07-31T04:36:19;99465.47;;;13.79;100.00
22550;BME280;11441;57.164;-2.120;2023-07-31T04:38:46;99458.72;;;13.84;100.00
22550;BME280;11441;57.164;-2.120;2023-07-31T04:41:31;99462.63;;;13.86;100.00
22550;BME280;11441;57.164;-2.120;2023-07-31T04:43:58;99458.66;;;13.91;100.00
22550;BME280;11441;57.164;-2.120;2023-07-31T04:46:25;99440.91;;;13.88;100.00
22550;BME280;11441;57.164;-2.120;2023-07-31T04:48:52;99431.53;;;13.71;100.00
22550;BME280;11441;57.164;-2.120;2023-07-31T04:51:19;99443.31;;;13.79;100.00
22550;BME280;11441;57.164;-2.120;2023-07-31T04:53:47;99442.94;;;13.81;100.00
22550;BME280;11441;57.164;-2.120;2023-07-31T04:56:15;99441.25;;;13.94;100.00
22550;BME280;11441;57.164;-2.120;2023-07-31T04:59:00;99429.91;;;13.77;100.00
22550;BME280;11441;57.164;-2.120;2023-07-31T05:01:27;99436.50;;;13.94;100.00
22550;BME280;11441;57.164;-2.120;2023-07-31T05:03:54;99435.69;;;13.98;100.00
22550;BME280;11441;57.164;-2.120;2023-07-31T05:06:21;99438.75;;;14.07;100.00
22550;BME280;11441;57.164;-2.120;2023-07-31T05:08:48;99426.09;;;14.09;100.00
22550;BME280;11441;57.164;-2.120;2023-07-31T05:11:15;99432.22;;;14.28;100.00
22550;BME280;11441;57.164;-2.120;2023-07-31T05:14:00;99438.09;;;14.37;100.00
22550;BME280;11441;57.164;-2.120;2023-07-31T05:16:27;99430.59;;;14.34;100.00
22550;BME280;11441;57.164;-2.120;2023-07-31T05:18:56;99439.81;;;14.62;100.00
22550;BME280;11441;57.164;-2.120;2023-07-31T05:21:23;99432.69;;;14.61;100.00
22550;BME280;11441;57.164;-2.120;2023-07-31T05:23:50;99438.56;;;14.70;100.00
22550;BME280;11441;57.164;-2.120;2023-07-31T05:26:17;99431.75;;;14.75;100.00
22550;BME280;11441;57.164;-2.120;2023-07-31T05:28:45;99439.75;;;14.69;100.00
22550;BME280;11441;57.164;-2.120;2023-07-31T05:31:11;99439.66;;;14.76;100.00
22550;BME280;11441;57.164;-2.120;2023-07-31T05:33:38;99436.75;;;14.87;100.00
22550;BME280;11441;57.164;-2.120;2023-07-31T05:36:05;99422.44;;;14.92;100.00
22550;BME280;11441;57.164;-2.120;2023-07-31T05:38:32;99426.03;;;14.89;100.00
22550;BME280;11441;57.164;-2.120;2023-07-31T05:40:59;99419.50;;;15.06;100.00
22550;BME280;11441;57.164;-2.120;2023-07-31T05:43:26;99423.31;;;15.16;100.00
22550;BME280;11441;57.164;-2.120;2023-07-31T05:45:53;99425.72;;;15.14;100.00
22550;BME280;11441;57.164;-2.120;2023-07-31T05:48:19;99421.66;;;15.22;100.00
22550;BME280;11441;57.164;-2.120;2023-07-31T05:50:46;99422.59;;;15.12;100.00
22550;BME280;11441;57.164;-2.120;2023-07-31T05:53:13;99418.38;;;15.00;100.00
22550;BME280;11441;57.164;-2.120;2023-07-31T05:55:40;99419.34;;;15.17;100.00
22550;BME280;11441;57.164;-2.120;2023-07-31T05:58:07;99401.00;;;14.96;100.00
22550;BME280;11441;57.164;-2.120;2023-07-31T06:00:34;99411.44;;;15.16;100.00
22550;BME280;11441;57.164;-2.120;2023-07-31T06:06:05;99407.78;;;15.22;100.00
22550;BME280;11441;57.164;-2.120;2023-07-31T06:08:32;99404.22;;;15.22;100.00
22550;BME280;11441;57.164;-2.120;2023-07-31T06:10:59;99403.16;;;15.39;100.00
22550;BME280;11441;57.164;-2.120;2023-07-31T06:13:26;99404.31;;;15.42;100.00
22550;BME280;11441;57.164;-2.120;2023-07-31T06:15:53;99398.25;;;15.51;100.00
22550;BME280;11441;57.164;-2.120;2023-07-31T06:18:20;99403.28;;;15.59;100.00
22550;BME280;11441;57.164;-2.120;2023-07-31T06:20:46;99403.44;;;15.72;100.00
22550;BME280;11441;57.164;-2.120;2023-07-31T06:23:14;99398.97;;;15.82;100.00
22550;BME280;11441;57.164;-2.120;2023-07-31T06:25:59;99399.25;;;15.88;100.00
22550;BME280;11441;57.164;-2.120;2023-07-31T06:28:30;99400.34;;;15.94;100.00
22550;BME280;11441;57.164;-2.120;2023-07-31T06:30:58;99391.66;;;15.92;100.00
22550;BME280;11441;57.164;-2.120;2023-07-31T06:33:25;99387.31;;;15.91;100.00
22550;BME280;11441;57.164;-2.120;2023-07-31T06:35:52;99389.53;;;15.99;100.00
22550;BME280;11441;57.164;-2.120;2023-07-31T06:38:22;99388.56;;;16.10;100.00
22550;BME280;11441;57.164;-2.120;2023-07-31T06:40:49;99395.88;;;16.24;100.00
22550;BME280;11441;57.164;-2.120;2023-07-31T06:43:16;99397.72;;;16.30;100.00
22550;BME280;11441;57.164;-2.120;2023-07-31T06:45:43;99394.47;;;16.35;100.00
22550;BME280;11441;57.164;-2.120;2023-07-31T06:48:11;99394.09;;;16.53;100.00
22550;BME280;11441;57.164;-2.120;2023-07-31T06:50:38;99394.94;;;16.50;100.00
22550;BME280;11441;57.164;-2.120;2023-07-31T06:53:05;99389.66;;;16.56;100.00
22550;BME280;11441;57.164;-2.120;2023-07-31T06:55:33;99379.28;;;16.60;100.00
22550;BME280;11441;57.164;-2.120;2023-07-31T06:57:59;99379.50;;;16.69;100.00
22550;BME280;11441;57.164;-2.120;2023-07-31T07:00:27;99378.78;;;16.65;100.00
22550;BME280;11441;57.164;-2.120;2023-07-31T07:02:54;99375.63;;;16.83;100.00
22550;BME280;11441;57.164;-2.120;2023-07-31T07:05:21;99379.78;;;16.95;100.00
22550;BME280;11441;57.164;-2.120;2023-07-31T07:07:49;99382.00;;;16.84;100.00
22550;BME280;11441;57.164;-2.120;2023-07-31T07:10:17;99382.19;;;16.73;100.00
22550;BME280;11441;57.164;-2.120;2023-07-31T07:12:45;99382.38;;;16.82;100.00
22550;BME280;11441;57.164;-2.120;2023-07-31T07:15:12;99392.38;;;16.80;100.00
22550;BME280;11441;57.164;-2.120;2023-07-31T07:17:39;99389.66;;;16.96;100.00
22550;BME280;11441;57.164;-2.120;2023-07-31T07:20:06;99387.97;;;17.02;100.00
22550;BME280;11441;57.164;-2.120;2023-07-31T07:22:34;99383.00;;;16.93;100.00
22550;BME280;11441;57.164;-2.120;2023-07-31T07:25:02;99386.88;;;16.96;100.00
22550;BME280;11441;57.164;-2.120;2023-07-31T07:27:29;99382.34;;;16.86;100.00
22550;BME280;11441;57.164;-2.120;2023-07-31T07:29:56;99376.59;;;16.56;100.00
22550;BME280;11441;57.164;-2.120;2023-07-31T07:32:23;99380.34;;;16.66;100.00
22550;BME280;11441;57.164;-2.120;2023-07-31T07:34:50;99382.03;;;16.80;100.00
22550;BME280;11441;57.164;-2.120;2023-07-31T07:37:17;99379.34;;;16.56;100.00
22550;BME280;11441;57.164;-2.120;2023-07-31T07:39:44;99376.47;;;16.80;100.00
22550;BME280;11441;57.164;-2.120;2023-07-31T07:42:11;99377.22;;;16.64;100.00
22550;BME280;11441;57.164;-2.120;2023-07-31T07:44:38;99371.44;;;16.95;100.00
22550;BME280;11441;57.164;-2.120;2023-07-31T07:47:05;99375.47;;;17.10;100.00
22550;BME280;11441;57.164;-2.120;2023-07-31T07:49:53;99373.03;;;17.12;100.00
22550;BME280;11441;57.164;-2.120;2023-07-31T07:52:20;99371.63;;;17.21;100.00
22550;BME280;11441;57.164;-2.120;2023-07-31T07:54:47;99364.94;;;17.02;100.00
22550;BME280;11441;57.164;-2.120;2023-07-31T07:57:14;99374.66;;;16.93;100.00
22550;BME280;11441;57.164;-2.120;2023-07-31T07:59:41;99368.56;;;16.99;100.00
22550;BME280;11441;57.164;-2.120;2023-07-31T08:02:25;99366.81;;;16.88;100.00
22550;BME280;11441;57.164;-2.120;2023-07-31T08:04:52;99363.63;;;17.06;100.00
22550;BME280;11441;57.164;-2.120;2023-07-31T08:07:19;99362.16;;;17.02;100.00
22550;BME280;11441;57.164;-2.120;2023-07-31T08:09:46;99352.59;;;17.03;100.00
22550;BME280;11441;57.164;-2.120;2023-07-31T08:12:13;99356.25;;;17.16;100.00
22550;BME280;11441;57.164;-2.120;2023-07-31T08:14:40;99355.63;;;17.08;100.00
22550;BME280;11441;57.164;-2.120;2023-07-31T08:17:25;99354.78;;;17.11;100.00
22550;BME280;11441;57.164;-2.120;2023-07-31T08:19:52;99349.84;;;17.36;100.00
22550;BME280;11441;57.164;-2.120;2023-07-31T08:22:19;99349.06;;;17.35;100.00
22550;BME280;11441;57.164;-2.120;2023-07-31T08:24:46;99352.53;;;17.23;100.00
22550;BME280;11441;57.164;-2.120;2023-07-31T08:27:32;99341.31;;;17.43;100.00
22550;BME280;11441;57.164;-2.120;2023-07-31T08:29:58;99344.03;;;17.30;100.00
22550;BME280;11441;57.164;-2.120;2023-07-31T08:32:25;99345.84;;;17.37;100.00
22550;BME280;11441;57.164;-2.120;2023-07-31T08:34:52;99348.19;;;17.55;100.00
22550;BME280;11441;57.164;-2.120;2023-07-31T08:37:19;99360.47;;;17.74;100.00
22550;BME280;11441;57.164;-2.120;2023-07-31T08:39:46;99354.19;;;17.53;100.00
22550;BME280;11441;57.164;-2.120;2023-07-31T08:42:13;99354.28;;;17.49;100.00
22550;BME280;11441;57.164;-2.120;2023-07-31T08:44:40;99337.94;;;17.68;100.00
22550;BME280;11441;57.164;-2.120;2023-07-31T08:47:08;99346.25;;;17.84;100.00
22550;BME280;11441;57.164;-2.120;2023-07-31T08:49:36;99355.06;;;17.99;100.00
22550;BME280;11441;57.164;-2.120;2023-07-31T08:52:05;99357.56;;;17.77;100.00
22550;BME280;11441;57.164;-2.120;2023-07-31T08:54:33;99343.13;;;17.66;100.00
22550;BME280;11441;57.164;-2.120;2023-07-31T08:57:00;99335.13;;;17.84;100.00
22550;BME280;11441;57.164;-2.120;2023-07-31T08:59:31;99335.22;;;17.81;100.00
22550;BME280;11441;57.164;-2.120;2023-07-31T09:02:06;99329.72;;;17.77;100.00
22550;BME280;11441;57.164;-2.120;2023-07-31T09:04:34;99341.47;;;18.01;100.00
22550;BME280;11441;57.164;-2.120;2023-07-31T09:07:03;99339.84;;;17.87;100.00
22550;BME280;11441;57.164;-2.120;2023-07-31T09:09:31;99338.69;;;18.01;100.00
22550;BME280;11441;57.164;-2.120;2023-07-31T09:11:58;99349.03;;;18.01;100.00
22550;BME280;11441;57.164;-2.120;2023-07-31T09:14:26;99344.00;;;17.79;100.00
22550;BME280;11441;57.164;-2.120;2023-07-31T09:16:54;99341.28;;;18.08;100.00
22550;BME280;11441;57.164;-2.120;2023-07-31T09:19:26;99336.28;;;18.45;100.00
22550;BME280;11441;57.164;-2.120;2023-07-31T09:21:53;99338.50;;;18.38;100.00
22550;BME280;11441;57.164;-2.120;2023-07-31T09:24:28;99335.47;;;17.86;100.00
22550;BME280;11441;57.164;-2.120;2023-07-31T09:26:55;99335.59;;;18.12;100.00
22550;BME280;11441;57.164;-2.120;2023-07-31T09:29:23;99342.34;;;18.27;100.00
22550;BME280;11441;57.164;-2.120;2023-07-31T09:31:50;99338.94;;;18.36;100.00
22550;BME280;11441;57.164;-2.120;2023-07-31T09:34:17;99337.88;;;18.59;100.00
22550;BME280;11441;57.164;-2.120;2023-07-31T09:37:01;99336.34;;;18.00;100.00
22550;BME280;11441;57.164;-2.120;2023-07-31T09:39:29;99336.03;;;18.11;100.00
22550;BME280;11441;57.164;-2.120;2023-07-31T09:41:56;99339.44;;;18.18;100.00
22550;BME280;11441;57.164;-2.120;2023-07-31T09:44:41;99338.47;;;18.67;100.00
22550;BME280;11441;57.164;-2.120;2023-07-31T09:47:22;99330.53;;;18.65;100.00
22550;BME280;11441;57.164;-2.120;2023-07-31T09:49:53;99324.03;;;18.69;100.00
22550;BME280;11441;57.164;-2.120;2023-07-31T09:52:20;99324.19;;;18.78;100.00
22550;BME280;11441;57.164;-2.120;2023-07-31T09:54:46;99321.56;;;18.58;100.00
22550;BME280;11441;57.164;-2.120;2023-07-31T09:57:14;99319.72;;;18.25;100.00
22550;BME280;11441;57.164;-2.120;2023-07-31T09:59:45;99321.88;;;18.34;100.00
22550;BME280;11441;57.164;-2.120;2023-07-31T10:02:18;99317.19;;;18.44;100.00
22550;BME280;11441;57.164;-2.120;2023-07-31T10:04:49;99320.25;;;18.75;100.00
22550;BME280;11441;57.164;-2.120;2023-07-31T10:07:18;99323.25;;;18.55;100.00
22550;BME280;11441;57.164;-2.120;2023-07-31T10:09:47;99312.09;;;18.55;100.00
22550;BME280;11441;57.164;-2.120;2023-07-31T10:12:18;99303.88;;;18.77;100.00
22550;BME280;11441;57.164;-2.120;2023-07-31T10:14:45;99313.16;;;19.00;100.00
22550;BME280;11441;57.164;-2.120;2023-07-31T10:17:13;99315.84;;;19.16;100.00
22550;BME280;11441;57.164;-2.120;2023-07-31T10:20:01;99308.03;;;19.24;100.00
22550;BME280;11441;57.164;-2.120;2023-07-31T10:22:31;99314.25;;;18.77;100.00
22550;BME280;11441;57.164;-2.120;2023-07-31T10:24:59;99304.47;;;19.11;100.00
22550;BME280;11441;57.164;-2.120;2023-07-31T10:27:27;99304.69;;;18.91;100.00
22550;BME280;11441;57.164;-2.120;2023-07-31T10:29:58;99302.22;;;18.80;100.00
22550;BME280;11441;57.164;-2.120;2023-07-31T10:32:26;99298.22;;;18.39;100.00
22550;BME280;11441;57.164;-2.120;2023-07-31T10:34:53;99286.25;;;18.80;100.00
22550;BME280;11441;57.164;-2.120;2023-07-31T10:37:23;99284.03;;;19.14;100.00
22550;BME280;11441;57.164;-2.120;2023-07-31T10:40:04;99287.44;;;19.44;100.00
22550;BME280;11441;57.164;-2.120;2023-07-31T10:42:36;99289.38;;;19.34;100.00
22550;BME280;11441;57.164;-2.120;2023-07-31T10:45:07;99302.19;;;19.44;100.00
22550;BME280;11441;57.164;-2.120;2023-07-31T10:47:44;99288.38;;;19.28;100.00
22550;BME280;11441;57.164;-2.120;2023-07-31T10:50:22;99285.13;;;19.29;100.00
22550;BME280;11441;57.164;-2.120;2023-07-31T10:52:52;99285.59;;;18.89;100.00
22550;BME280;11441;57.164;-2.120;2023-07-31T10:55:38;99281.91;;;19.05;100.00
22550;BME280;11441;57.164;-2.120;2023-07-31T10:58:11;99283.91;;;19.17;100.00
22550;BME280;11441;57.164;-2.120;2023-07-31T11:00:43;99275.44;;;19.08;100.00
22550;BME280;11441;57.164;-2.120;2023-07-31T11:03:13;99280.59;;;18.97;100.00
22550;BME280;11441;57.164;-2.120;2023-07-31T11:08:41;99270.44;;;19.03;100.00
22550;BME280;11441;57.164;-2.120;2023-07-31T11:11:25;99262.06;;;19.03;100.00
22550;BME280;11441;57.164;-2.120;2023-07-31T11:14:10;99259.16;;;19.19;100.00
22550;BME280;11441;57.164;-2.120;2023-07-31T11:16:37;99265.53;;;19.07;100.00
22550;BME280;11441;57.164;-2.120;2023-07-31T11:19:26;99259.59;;;19.18;100.00
22550;BME280;11441;57.164;-2.120;2023-07-31T11:21:53;99260.41;;;18.93;100.00
22550;BME280;11441;57.164;-2.120;2023-07-31T11:24:20;99251.47;;;18.98;100.00
22550;BME280;11441;57.164;-2.120;2023-07-31T11:26:49;99263.41;;;18.86;100.00
22550;BME280;11441;57.164;-2.120;2023-07-31T11:29:17;99254.81;;;18.67;100.00
22550;BME280;11441;57.164;-2.120;2023-07-31T11:31:46;99261.25;;;18.51;100.00
22550;BME280;11441;57.164;-2.120;2023-07-31T11:34:13;99255.50;;;18.97;100.00
22550;BME280;11441;57.164;-2.120;2023-07-31T11:36:40;99260.63;;;18.98;100.00
22550;BME280;11441;57.164;-2.120;2023-07-31T11:39:09;99262.47;;;18.50;100.00
22550;BME280;11441;57.164;-2.120;2023-07-31T11:41:41;99259.72;;;18.76;100.00
22550;BME280;11441;57.164;-2.120;2023-07-31T11:44:07;99253.50;;;18.84;100.00
22550;BME280;11441;57.164;-2.120;2023-07-31T11:46:52;99248.31;;;18.70;100.00
22550;BME280;11441;57.164;-2.120;2023-07-31T11:49:20;99258.81;;;18.79;100.00
22550;BME280;11441;57.164;-2.120;2023-07-31T11:51:47;99248.00;;;18.68;100.00
22550;BME280;11441;57.164;-2.120;2023-07-31T11:54:14;99247.31;;;18.51;100.00
22550;BME280;11441;57.164;-2.120;2023-07-31T11:56:43;99246.19;;;18.49;100.00
22550;BME280;11441;57.164;-2.120;2023-07-31T11:59:11;99242.38;;;18.30;100.00
22550;BME280;11441;57.164;-2.120;2023-07-31T12:01:39;99245.84;;;18.72;100.00
22550;BME280;11441;57.164;-2.120;2023-07-31T12:04:06;99247.56;;;18.57;100.00
22550;BME280;11441;57.164;-2.120;2023-07-31T12:06:35;99238.63;;;18.62;100.00
22550;BME280;11441;57.164;-2.120;2023-07-31T12:09:21;99235.50;;;18.47;100.00
22550;BME280;11441;57.164;-2.120;2023-07-31T12:11:48;99234.72;;;18.59;100.00
22550;BME280;11441;57.164;-2.120;2023-07-31T12:14:24;99231.81;;;18.50;100.00
22550;BME280;11441;57.164;-2.120;2023-07-31T12:16:55;99232.59;;;18.63;100.00
22550;BME280;11441;57.164;-2.120;2023-07-31T12:19:23;99230.56;;;18.51;100.00
22550;BME280;11441;57.164;-2.120;2023-07-31T12:21:54;99223.91;;;18.49;100.00
22550;BME280;11441;57.164;-2.120;2023-07-31T12:24:21;99229.91;;;18.47;100.00
22550;BME280;11441;57.164;-2.120;2023-07-31T12:26:48;99215.38;;;18.14;100.00
22550;BME280;11441;57.164;-2.120;2023-07-31T12:29:15;99211.94;;;18.22;100.00
22550;BME280;11441;57.164;-2.120;2023-07-31T12:31:42;99212.63;;;18.39;100.00
22550;BME280;11441;57.164;-2.120;2023-07-31T12:34:17;99207.72;;;18.31;100.00
22550;BME280;11441;57.164;-2.120;2023-07-31T12:36:45;99208.06;;;18.45;100.00
22550;BME280;11441;57.164;-2.120;2023-07-31T12:39:12;99204.81;;;18.47;100.00
22550;BME280;11441;57.164;-2.120;2023-07-31T12:41:39;99207.19;;;18.36;100.00
22550;BME280;11441;57.164;-2.120;2023-07-31T12:44:06;99198.81;;;18.49;100.00
22550;BME280;11441;57.164;-2.120;2023-07-31T12:46:33;99196.34;;;18.38;100.00
22550;BME280;11441;57.164;-2.120;2023-07-31T12:49:00;99192.56;;;18.32;100.00
22550;BME280;11441;57.164;-2.120;2023-07-31T12:51:27;99181.63;;;18.24;100.00
22550;BME280;11441;57.164;-2.120;2023-07-31T12:53:54;99181.28;;;18.22;100.00
22550;BME280;11441;57.164;-2.120;2023-07-31T12:56:21;99178.16;;;18.20;100.00
22550;BME280;11441;57.164;-2.120;2023-07-31T12:58:47;99173.66;;;17.97;100.00
22550;BME280;11441;57.164;-2.120;2023-07-31T13:01:14;99171.69;;;17.98;100.00
22550;BME280;11441;57.164;-2.120;2023-07-31T13:03:41;99165.06;;;17.92;100.00
22550;BME280;11441;57.164;-2.120;2023-07-31T13:06:08;99154.81;;;17.88;100.00